createdAt,value
2023-02-02T00:02:37.062Z,1.50
2023-02-02T00:07:39.673Z,2.05
2023-02-02T00:12:42.154Z,2.42
2023-02-02T00:17:44.298Z,2.30
2023-02-02T00:22:46.806Z,1.90
2023-02-02T00:27:49.214Z,2.43
2023-02-02T00:32:51.413Z,2.77
2023-02-02T00:37:53.557Z,2.35
2023-02-02T00:42:55.758Z,2.30
2023-02-02T00:47:57.907Z,2.63
2023-02-02T00:53:00.315Z,2.75
2023-02-02T00:58:02.791Z,3.07
2023-02-02T01:03:05.327Z,2.87
2023-02-02T01:08:07.910Z,1.88
2023-02-02T01:13:10.256Z,1.85
2023-02-02T01:18:12.426Z,2.77
2023-02-02T01:23:14.708Z,3.50
2023-02-02T01:28:16.893Z,2.50
2023-02-02T01:33:20.429Z,3.08
2023-02-02T01:38:23.395Z,2.40
2023-02-02T01:43:55.790Z,2.63
2023-02-02T01:48:57.770Z,2.10
2023-02-02T01:54:00.277Z,3.05
2023-02-02T01:59:02.978Z,2.77
2023-02-02T02:04:05.710Z,2.40
2023-02-02T02:09:07.823Z,2.63
2023-02-02T02:14:10.621Z,2.53
2023-02-02T02:24:15.022Z,2.35
2023-02-02T02:29:26.069Z,2.65
2023-02-02T02:34:28.535Z,2.47
2023-02-02T02:39:49.266Z,2.28
2023-02-02T02:44:53.252Z,2.92
2023-02-02T02:49:55.388Z,2.33
2023-02-02T02:54:58.167Z,2.65
2023-02-02T03:00:12.663Z,2.83
2023-02-02T03:05:23.855Z,2.92
2023-02-02T03:10:28.328Z,2.00
2023-02-02T03:15:30.374Z,2.13
2023-02-02T03:20:32.215Z,3.10
2023-02-02T03:25:34.048Z,3.45
2023-02-02T03:30:36.983Z,3.53
2023-02-02T03:35:39.170Z,2.10
2023-02-02T03:40:41.179Z,2.28
2023-02-02T03:45:43.013Z,2.58
2023-02-02T03:50:44.837Z,3.03
2023-02-02T03:55:46.693Z,2.70
2023-02-02T04:00:48.668Z,2.60
2023-02-02T04:05:50.788Z,2.65
2023-02-02T04:10:52.646Z,5.03
2023-02-02T04:16:01.309Z,2.53
2023-02-02T04:21:03.486Z,2.50
2023-02-02T04:26:05.496Z,1.85
2023-02-02T04:31:07.390Z,2.05
2023-02-02T04:36:09.548Z,1.35
2023-02-02T04:41:12.046Z,1.30
2023-02-02T04:46:14.544Z,0.90
2023-02-02T04:51:16.486Z,0.90
2023-02-02T04:56:18.689Z,0.90
2023-02-02T05:01:20.808Z,1.00
2023-02-02T05:06:22.853Z,0.60
2023-02-02T05:11:24.689Z,1.33
2023-02-02T05:16:28.810Z,0.88
2023-02-02T05:21:31.036Z,1.50
2023-02-02T05:26:32.962Z,0.60
2023-02-02T05:31:35.377Z,0.65
2023-02-02T05:36:37.206Z,0.53
2023-02-02T05:41:39.079Z,0.88
2023-02-02T05:46:40.921Z,0.60
2023-02-02T05:51:50.052Z,1.08
2023-02-02T05:56:52.930Z,0.82
2023-02-02T06:01:54.790Z,0.60
2023-02-02T06:06:56.663Z,0.70
2023-02-02T06:11:58.479Z,0.70
2023-02-02T06:17:00.303Z,1.27
2023-02-02T06:22:02.212Z,0.65
2023-02-02T06:27:04.278Z,0.68
2023-02-02T06:32:06.369Z,0.88
2023-02-02T06:37:08.261Z,0.98
2023-02-02T06:42:20.767Z,0.90
2023-02-02T06:47:25.371Z,1.20
2023-02-02T06:52:28.460Z,1.10
2023-02-02T06:57:30.330Z,0.60
2023-02-02T07:02:32.176Z,1.02
2023-02-02T07:07:34.698Z,1.10
2023-02-02T07:12:36.529Z,0.90
2023-02-02T07:17:38.451Z,0.93
2023-02-02T07:22:40.541Z,1.25
2023-02-02T07:27:42.369Z,1.05
2023-02-02T07:32:50.349Z,1.00
2023-02-02T07:37:52.989Z,1.25
2023-02-02T07:42:54.805Z,1.00
2023-02-02T07:47:57.212Z,0.85
2023-02-02T07:52:59.432Z,1.03
2023-02-02T07:58:01.285Z,1.02
2023-02-02T08:03:03.264Z,0.95
2023-02-02T08:08:05.130Z,1.23
2023-02-02T08:13:07.026Z,1.48
2023-02-02T08:18:08.863Z,1.00
2023-02-02T08:23:10.665Z,1.08
2023-02-02T08:28:12.489Z,1.10
2023-02-02T08:33:14.509Z,0.75
2023-02-02T08:38:16.343Z,1.08
2023-02-02T08:43:18.181Z,1.52
2023-02-02T08:48:20.135Z,1.42
2023-02-02T08:53:22.756Z,1.00
2023-02-02T08:58:24.579Z,1.05
2023-02-02T09:03:26.584Z,1.10
2023-02-02T09:08:28.605Z,0.90
2023-02-02T09:13:30.716Z,1.10
2023-02-02T09:18:32.780Z,1.42
2023-02-02T09:23:35.919Z,0.95
2023-02-02T09:28:40.083Z,0.90
2023-02-02T09:33:43.102Z,1.40
2023-02-02T09:38:45.276Z,0.95
2023-02-02T09:43:50.057Z,1.05
2023-02-02T09:49:02.594Z,1.20
2023-02-02T09:54:28.513Z,1.20
2023-02-02T09:59:39.995Z,1.27
2023-02-02T10:04:45.056Z,1.00
2023-02-02T10:10:01.050Z,0.80
2023-02-02T10:15:28.391Z,1.35
2023-02-02T10:20:39.685Z,0.98
2023-02-02T10:25:48.733Z,1.10
2023-02-02T10:30:59.235Z,1.20
2023-02-02T10:36:22.126Z,0.98
2023-02-02T10:41:42.945Z,1.02
2023-02-02T10:46:54.771Z,1.10
2023-02-02T10:52:15.250Z,1.00
2023-02-02T10:57:26.887Z,0.90
2023-02-02T11:02:29.104Z,1.10
2023-02-02T11:07:31.358Z,1.57
2023-02-02T11:12:34.751Z,1.30
2023-02-02T11:22:38.923Z,1.45
2023-02-02T11:27:42.710Z,1.13
2023-02-02T11:32:44.741Z,1.35
2023-02-02T11:37:56.840Z,1.45
2023-02-02T11:43:04.060Z,1.35
2023-02-02T11:48:17.739Z,1.20
2023-02-02T11:53:33.811Z,1.48
2023-02-02T11:58:46.324Z,1.75
2023-02-02T12:03:48.495Z,1.80
2023-02-02T12:08:58.819Z,1.58
2023-02-02T12:14:16.018Z,1.45
2023-02-02T12:19:20.881Z,1.52
2023-02-02T12:24:22.724Z,1.75
2023-02-02T12:29:34.250Z,1.60
2023-02-02T12:34:45.145Z,1.85
2023-02-02T12:39:53.085Z,1.40
2023-02-02T12:44:57.934Z,0.90
2023-02-02T12:49:59.814Z,1.02
2023-02-02T12:55:17.357Z,1.05
2023-02-02T13:00:19.303Z,0.93
2023-02-02T13:05:24.148Z,1.25
2023-02-02T13:10:29.061Z,0.90
2023-02-02T13:15:35.587Z,1.10
2023-02-02T13:20:41.916Z,1.20
2023-02-02T13:25:54.807Z,1.10
2023-02-02T13:30:58.129Z,1.10
2023-02-02T13:36:02.143Z,1.10
2023-02-02T13:41:07.146Z,1.08
2023-02-02T13:46:15.131Z,1.02
2023-02-02T13:51:26.811Z,1.02
2023-02-02T13:56:43.928Z,0.75
2023-02-02T14:01:48.168Z,1.00
2023-02-02T14:06:55.228Z,1.10
2023-02-02T14:11:59.153Z,1.17
2023-02-02T14:17:12.941Z,1.10
2023-02-02T14:27:16.573Z,1.20
2023-02-02T14:32:24.516Z,0.75
2023-02-02T14:37:26.396Z,1.42
2023-02-02T14:42:47.095Z,1.20
2023-02-02T14:47:58.504Z,1.08
2023-02-02T14:53:19.866Z,1.17
2023-02-02T14:58:24.471Z,1.52
2023-02-02T15:03:34.400Z,1.75
2023-02-02T15:08:36.264Z,1.70
2023-02-02T15:13:38.093Z,1.45
2023-02-02T15:18:43.282Z,1.70
2023-02-02T15:23:46.563Z,2.33
2023-02-02T15:33:51.668Z,3.05
2023-02-02T15:38:55.344Z,3.70
2023-02-02T15:43:57.142Z,3.95
2023-02-02T15:49:32.913Z,4.47
2023-02-02T15:54:36.423Z,6.07
2023-02-02T15:59:39.432Z,5.30
2023-02-02T16:04:43.131Z,5.60
2023-02-02T16:09:45.111Z,5.60
2023-02-02T16:14:49.243Z,5.68
2023-02-02T16:19:56.331Z,5.63
2023-02-02T16:25:00.618Z,6.85
2023-02-02T16:30:09.263Z,7.18
2023-02-02T16:35:29.773Z,6.95
2023-02-02T16:40:31.573Z,7.38
2023-02-02T16:45:45.291Z,6.78
2023-02-02T16:50:50.600Z,6.10
2023-02-02T16:55:52.752Z,6.70
2023-02-02T17:01:02.184Z,5.80
2023-02-02T17:06:07.954Z,6.55
2023-02-02T17:11:38.864Z,6.30
2023-02-02T17:16:42.036Z,6.50
2023-02-02T17:21:43.891Z,6.00
2023-02-02T17:26:45.763Z,6.40
2023-02-02T17:31:47.638Z,5.90
2023-02-02T17:36:49.466Z,6.18
2023-02-02T17:41:51.376Z,5.45
2023-02-02T17:46:53.230Z,6.32
2023-02-02T17:51:55.030Z,5.47
2023-02-02T17:56:56.833Z,6.50
2023-02-02T18:01:58.726Z,6.70
2023-02-02T18:07:00.530Z,6.82
2023-02-02T18:12:02.378Z,7.38
2023-02-02T18:17:04.282Z,9.20
2023-02-02T18:22:06.083Z,8.13
2023-02-02T18:27:08.019Z,8.60
2023-02-02T18:32:09.887Z,9.10
2023-02-02T18:37:11.720Z,9.80
2023-02-02T18:42:13.537Z,9.57
2023-02-02T18:47:15.468Z,10.15
2023-02-02T18:52:17.277Z,8.70
2023-02-02T18:57:19.111Z,8.77
2023-02-02T19:02:20.935Z,9.38
2023-02-02T19:07:22.733Z,8.70
2023-02-02T19:12:25.219Z,8.57
2023-02-02T19:17:27.029Z,7.63
2023-02-02T19:22:29.122Z,8.27
2023-02-02T19:27:30.938Z,7.53
2023-02-02T19:32:33.276Z,7.68
2023-02-02T19:37:38.124Z,9.23
2023-02-02T19:43:06.080Z,9.15
2023-02-02T19:48:15.122Z,8.40
2023-02-02T19:53:20.030Z,8.25
2023-02-02T19:58:28.070Z,8.05
2023-02-02T20:03:42.126Z,7.60
2023-02-02T20:08:44.045Z,7.78
2023-02-02T20:13:46.430Z,7.18
2023-02-02T20:18:49.294Z,6.30
2023-02-02T20:23:51.157Z,6.10
2023-02-02T20:28:54.364Z,5.80
2023-02-02T20:33:56.422Z,6.28
2023-02-02T20:39:15.427Z,5.32
2023-02-02T20:44:17.356Z,4.80
2023-02-02T20:49:19.174Z,5.47
2023-02-02T20:54:21.122Z,6.78
2023-02-02T20:59:22.934Z,5.00
2023-02-02T21:04:24.747Z,5.53
2023-02-02T21:09:26.752Z,7.10
2023-02-02T21:14:28.564Z,6.38
2023-02-02T21:19:30.443Z,7.10
2023-02-02T21:24:32.288Z,6.57
2023-02-02T21:29:34.129Z,6.50
2023-02-02T21:34:35.977Z,6.50
2023-02-02T21:39:37.793Z,6.40
2023-02-02T21:44:41.506Z,7.05
2023-02-02T21:49:43.330Z,7.38
2023-02-02T21:54:45.716Z,5.88
2023-02-02T21:59:56.845Z,5.80
2023-02-02T22:04:59.469Z,6.35
2023-02-02T22:10:01.337Z,5.38
2023-02-02T22:15:06.004Z,4.45
2023-02-02T22:20:31.894Z,4.90
2023-02-02T22:25:35.645Z,4.53
2023-02-02T22:30:38.487Z,4.20
2023-02-02T22:35:40.891Z,3.58
2023-02-02T22:40:42.694Z,3.43
2023-02-02T22:45:44.886Z,3.13
2023-02-02T22:50:46.726Z,3.03
2023-02-02T22:55:48.558Z,2.55
2023-02-02T23:00:50.383Z,2.40
2023-02-02T23:05:52.184Z,2.22
2023-02-02T23:10:54.090Z,1.83
2023-02-02T23:15:55.975Z,1.75
2023-02-02T23:20:57.868Z,1.95
2023-02-02T23:25:59.688Z,1.80
2023-02-02T23:31:01.604Z,1.90
2023-02-02T23:36:03.591Z,1.75
2023-02-02T23:41:05.518Z,1.80
2023-02-02T23:46:07.320Z,1.60
2023-02-02T23:51:09.541Z,1.95
2023-02-02T23:56:11.376Z,1.50
